createdAt,value
2024-05-09T00:00:55.478Z,9.57
2024-05-09T00:03:46.993Z,9.56
2024-05-09T00:06:17.596Z,9.54
2024-05-09T00:08:48.876Z,9.54
2024-05-09T00:11:20.720Z,9.54
2024-05-09T00:13:54.588Z,9.55
2024-05-09T00:16:25.188Z,9.56
2024-05-09T00:18:56.325Z,9.57
2024-05-09T00:21:26.935Z,9.58
2024-05-09T00:23:58.021Z,9.59
2024-05-09T00:26:28.686Z,9.58
2024-05-09T00:29:02.566Z,9.60
2024-05-09T00:31:33.303Z,9.61
2024-05-09T00:34:04.448Z,9.63
2024-05-09T00:36:35.077Z,9.63
2024-05-09T00:39:06.287Z,9.65
2024-05-09T00:41:36.956Z,9.67
2024-05-09T00:44:11.138Z,9.68
2024-05-09T00:46:41.805Z,9.65
2024-05-09T00:49:12.989Z,9.69
2024-05-09T00:51:43.673Z,9.70
2024-05-09T00:54:14.741Z,9.72
2024-05-09T00:56:45.358Z,9.73
2024-05-09T00:59:19.137Z,9.78
2024-05-09T01:01:49.927Z,9.75
2024-05-09T01:04:21.118Z,9.75
2024-05-09T01:06:51.775Z,9.78
2024-05-09T01:09:22.921Z,9.77
2024-05-09T01:11:53.913Z,9.79
2024-05-09T01:14:27.864Z,9.81
2024-05-09T01:16:58.649Z,9.83
2024-05-09T01:19:31.011Z,9.84
2024-05-09T01:22:01.779Z,9.88
2024-05-09T01:24:35.505Z,9.88
2024-05-09T01:27:06.268Z,9.87
2024-05-09T01:29:37.467Z,9.90
2024-05-09T01:32:08.588Z,9.92
2024-05-09T01:34:39.805Z,9.95
2024-05-09T01:37:10.466Z,9.95
2024-05-09T01:39:44.156Z,9.95
2024-05-09T01:42:16.620Z,9.94
2024-05-09T01:44:47.707Z,9.97
2024-05-09T01:47:18.409Z,9.98
2024-05-09T01:49:49.609Z,9.98
2024-05-09T01:52:22.750Z,9.99
2024-05-09T01:54:56.485Z,9.99
2024-05-09T01:57:27.056Z,10.00
2024-05-09T01:59:59.979Z,10.04
2024-05-09T02:02:30.745Z,10.03
2024-05-09T02:05:02.128Z,10.01
2024-05-09T02:07:33.413Z,10.04
2024-05-09T02:10:13.769Z,10.06
2024-05-09T02:12:47.228Z,10.07
2024-05-09T02:15:18.650Z,10.05
2024-05-09T02:17:49.388Z,10.05
2024-05-09T02:20:30.117Z,10.06
2024-05-09T02:23:07.017Z,10.08
2024-05-09T02:25:41.145Z,10.06
2024-05-09T02:28:11.722Z,10.09
2024-05-09T02:30:42.900Z,10.09
2024-05-09T02:33:14.544Z,10.11
2024-05-09T02:35:46.393Z,10.12
2024-05-09T02:38:14.513Z,10.15
2024-05-09T02:40:47.960Z,10.18
2024-05-09T02:43:16.372Z,10.19
2024-05-09T02:45:46.951Z,10.21
2024-05-09T02:48:15.514Z,10.21
2024-05-09T02:50:46.325Z,10.23
2024-05-09T02:53:15.120Z,10.22
2024-05-09T02:55:48.360Z,10.23
2024-05-09T02:58:16.727Z,10.23
2024-05-09T03:00:47.349Z,10.25
2024-05-09T03:03:16.092Z,10.27
2024-05-09T03:05:48.290Z,10.26
2024-05-09T03:08:16.736Z,10.25
2024-05-09T03:10:49.937Z,10.26
2024-05-09T03:13:18.433Z,10.26
2024-05-09T03:15:49.006Z,10.28
2024-05-09T03:18:17.509Z,10.29
2024-05-09T03:20:48.229Z,10.30
2024-05-09T03:23:16.799Z,10.32
2024-05-09T03:25:50.102Z,10.33
2024-05-09T03:28:18.594Z,10.34
2024-05-09T03:30:49.220Z,10.36
2024-05-09T03:33:19.378Z,10.39
2024-05-09T03:35:51.103Z,10.42
2024-05-09T03:38:22.231Z,10.41
2024-05-09T03:40:55.604Z,10.46
2024-05-09T03:43:26.746Z,10.50
2024-05-09T03:45:57.272Z,10.49
2024-05-09T03:48:25.925Z,10.53
2024-05-09T03:50:56.751Z,10.54
2024-05-09T03:53:25.603Z,10.55
2024-05-09T03:55:59.441Z,10.56
2024-05-09T03:58:30.593Z,10.62
2024-05-09T04:00:58.736Z,10.63
2024-05-09T04:03:30.169Z,10.65
2024-05-09T04:05:58.379Z,10.69
2024-05-09T04:08:29.480Z,10.68
2024-05-09T04:11:00.173Z,10.71
2024-05-09T04:13:31.297Z,10.74
2024-05-09T04:15:59.210Z,10.79
2024-05-09T04:18:30.379Z,10.82
2024-05-09T04:20:59.675Z,10.86
2024-05-09T04:23:30.962Z,10.89
2024-05-09T04:26:04.454Z,10.91
2024-05-09T04:28:35.683Z,10.97
2024-05-09T04:31:03.739Z,11.02
2024-05-09T04:33:35.027Z,11.04
2024-05-09T04:36:03.125Z,11.10
2024-05-09T04:38:34.432Z,11.15
2024-05-09T04:41:05.238Z,11.19
2024-05-09T04:43:36.336Z,11.23
2024-05-09T04:46:04.370Z,11.32
2024-05-09T04:48:35.506Z,11.36
2024-05-09T04:51:03.754Z,11.41
2024-05-09T04:53:34.853Z,11.48
2024-05-09T04:56:06.652Z,11.53
2024-05-09T04:58:37.792Z,11.59
2024-05-09T05:01:05.781Z,11.64
2024-05-09T05:03:37.182Z,11.70
2024-05-09T05:06:05.757Z,11.77
2024-05-09T05:08:36.952Z,11.86
2024-05-09T05:11:07.779Z,11.96
2024-05-09T05:13:41.338Z,12.04
2024-05-09T05:16:09.611Z,12.12
2024-05-09T05:18:40.651Z,12.21
2024-05-09T05:21:08.716Z,12.32
2024-05-09T05:23:40.913Z,12.41
2024-05-09T05:26:11.648Z,12.49
2024-05-09T05:28:45.434Z,12.54
2024-05-09T05:31:13.665Z,12.62
2024-05-09T05:33:44.934Z,12.68
2024-05-09T05:36:12.922Z,12.76
2024-05-09T05:38:45.418Z,12.85
2024-05-09T05:41:16.239Z,12.88
2024-05-09T05:43:47.393Z,12.95
2024-05-09T05:46:15.501Z,13.02
2024-05-09T05:48:46.567Z,13.10
2024-05-09T05:51:15.981Z,13.17
2024-05-09T05:53:49.891Z,13.22
2024-05-09T05:56:20.705Z,13.32
2024-05-09T05:58:51.966Z,13.39
2024-05-09T06:03:51.431Z,13.50
2024-05-09T06:06:19.632Z,13.59
2024-05-09T06:08:50.898Z,13.68
2024-05-09T06:11:21.786Z,13.74
2024-05-09T06:13:53.099Z,13.85
2024-05-09T06:16:21.161Z,13.95
2024-05-09T06:18:53.488Z,14.06
2024-05-09T06:21:26.807Z,14.16
2024-05-09T06:23:58.023Z,14.27
2024-05-09T06:26:31.470Z,14.36
2024-05-09T06:29:03.667Z,14.48
2024-05-09T06:31:31.691Z,14.55
2024-05-09T06:34:03.163Z,14.67
2024-05-09T06:36:31.285Z,14.79
2024-05-09T06:39:04.784Z,14.82
2024-05-09T06:41:35.452Z,14.88
2024-05-09T06:44:06.569Z,14.97
2024-05-09T06:46:34.617Z,15.07
2024-05-09T06:49:08.531Z,15.16
2024-05-09T06:51:36.637Z,15.22
2024-05-09T06:54:09.256Z,15.28
2024-05-09T06:56:39.967Z,15.38
2024-05-09T06:59:11.299Z,15.48
2024-05-09T07:01:39.452Z,15.58
2024-05-09T07:04:11.081Z,15.71
2024-05-09T07:06:39.296Z,15.78
2024-05-09T07:09:10.350Z,15.85
2024-05-09T07:11:41.147Z,15.90
2024-05-09T07:14:12.313Z,15.96
2024-05-09T07:16:40.418Z,16.04
2024-05-09T07:19:12.031Z,16.17
2024-05-09T07:21:40.190Z,16.22
2024-05-09T07:24:11.270Z,16.30
2024-05-09T07:26:41.962Z,16.40
2024-05-09T07:29:13.179Z,16.47
2024-05-09T07:31:41.090Z,16.53
2024-05-09T07:34:16.733Z,16.58
2024-05-09T07:36:44.854Z,16.64
2024-05-09T07:39:15.996Z,16.66
2024-05-09T07:41:46.736Z,16.74
2024-05-09T07:44:21.769Z,16.80
2024-05-09T07:47:48.846Z,16.90
2024-05-09T07:53:29.715Z,17.04
2024-05-09T07:55:05.048Z,17.12
2024-05-09T07:57:37.413Z,17.21
2024-05-09T08:00:11.847Z,17.29
2024-05-09T08:02:42.420Z,17.37
2024-05-09T08:05:19.637Z,17.48
2024-05-09T08:07:47.694Z,17.53
2024-05-09T08:10:21.984Z,17.65
2024-05-09T08:12:55.510Z,17.68
2024-05-09T08:15:26.751Z,17.75
2024-05-09T08:17:54.877Z,17.80
2024-05-09T08:20:31.134Z,17.81
2024-05-09T08:23:02.987Z,17.89
2024-05-09T08:25:34.115Z,17.93
2024-05-09T08:28:06.863Z,17.94
2024-05-09T08:30:38.546Z,17.98
2024-05-09T08:33:09.965Z,18.01
2024-05-09T08:35:41.079Z,18.02
2024-05-09T08:38:09.361Z,18.00
2024-05-09T08:40:40.476Z,17.99
2024-05-09T08:43:12.584Z,17.97
2024-05-09T08:45:45.531Z,17.96
2024-05-09T08:48:15.459Z,17.91
2024-05-09T08:50:47.526Z,17.96
2024-05-09T08:53:15.796Z,17.98
2024-05-09T08:55:47.215Z,18.03
2024-05-09T08:58:18.412Z,18.02
2024-05-09T09:00:49.983Z,18.00
2024-05-09T09:03:18.677Z,18.07
2024-05-09T09:05:51.791Z,18.06
2024-05-09T09:08:19.780Z,18.08
2024-05-09T09:10:53.075Z,18.12
2024-05-09T09:13:23.817Z,18.12
2024-05-09T09:15:57.919Z,18.09
2024-05-09T09:18:26.758Z,18.13
2024-05-09T09:20:58.079Z,18.16
2024-05-09T09:23:28.007Z,18.19
2024-05-09T09:26:01.019Z,18.23
2024-05-09T09:28:36.245Z,18.28
2024-05-09T09:31:07.477Z,18.28
2024-05-09T09:33:36.346Z,18.33
2024-05-09T09:36:09.644Z,18.37
2024-05-09T09:38:39.533Z,18.43
2024-05-09T09:41:11.338Z,18.45
2024-05-09T09:43:41.963Z,18.41
2024-05-09T09:46:13.251Z,18.48
2024-05-09T09:48:41.492Z,18.55
2024-05-09T09:51:12.692Z,18.58
2024-05-09T09:53:40.749Z,18.62
2024-05-09T09:56:11.817Z,18.63
2024-05-09T09:58:42.485Z,18.67
2024-05-09T10:01:13.619Z,18.75
2024-05-09T10:03:41.946Z,18.79
2024-05-09T10:06:13.551Z,18.84
2024-05-09T10:08:41.575Z,18.84
2024-05-09T10:11:12.634Z,18.86
2024-05-09T10:13:43.689Z,18.98
2024-05-09T10:16:14.779Z,19.02
2024-05-09T10:18:43.351Z,19.04
2024-05-09T10:21:18.018Z,19.11
2024-05-09T10:23:56.454Z,19.19
2024-05-09T10:26:32.703Z,19.22
2024-05-09T10:29:03.796Z,19.29
2024-05-09T10:31:34.832Z,19.28
2024-05-09T10:34:03.385Z,19.31
2024-05-09T10:36:34.718Z,19.38
2024-05-09T10:39:02.760Z,19.42
2024-05-09T10:41:33.881Z,19.43
2024-05-09T10:44:04.632Z,19.46
2024-05-09T10:46:35.647Z,19.46
2024-05-09T10:49:06.300Z,19.41
2024-05-09T10:51:38.895Z,19.51
2024-05-09T10:54:07.890Z,19.56
2024-05-09T10:56:38.960Z,19.62
2024-05-09T10:59:09.590Z,19.65
2024-05-09T11:01:40.801Z,19.68
2024-05-09T11:04:09.446Z,19.68
2024-05-09T11:06:40.761Z,19.69
2024-05-09T11:09:08.902Z,19.75
2024-05-09T11:11:39.939Z,19.80
2024-05-09T11:14:17.439Z,19.83
2024-05-09T11:16:48.469Z,19.87
2024-05-09T11:19:18.742Z,19.94
2024-05-09T11:21:53.621Z,19.97
2024-05-09T11:24:21.644Z,20.05
2024-05-09T11:26:52.696Z,20.11
2024-05-09T11:29:23.357Z,20.19
2024-05-09T11:31:54.428Z,20.23
2024-05-09T11:34:22.524Z,20.30
2024-05-09T11:36:53.671Z,20.36
2024-05-09T11:39:21.739Z,20.36
2024-05-09T11:41:52.780Z,20.21
2024-05-09T11:44:23.382Z,20.33
2024-05-09T11:46:54.490Z,20.46
2024-05-09T11:49:25.353Z,20.50
2024-05-09T11:51:57.496Z,20.61
2024-05-09T11:54:25.518Z,20.68
2024-05-09T11:56:56.620Z,20.74
2024-05-09T11:59:27.212Z,20.80
2024-05-09T12:01:58.463Z,20.92
2024-05-09T12:04:26.696Z,20.97
2024-05-09T12:06:57.771Z,21.11
2024-05-09T12:09:25.787Z,21.19
2024-05-09T12:11:56.816Z,21.30
2024-05-09T12:14:27.535Z,21.39
2024-05-09T12:16:59.310Z,21.49
2024-05-09T12:19:27.447Z,21.64
2024-05-09T12:21:58.504Z,21.73
2024-05-09T12:24:29.033Z,21.82
2024-05-09T12:27:00.135Z,21.93
2024-05-09T12:29:30.804Z,22.04
2024-05-09T12:32:01.876Z,22.15
2024-05-09T12:34:30.036Z,22.24
2024-05-09T12:37:01.176Z,22.34
2024-05-09T12:39:29.291Z,22.48
2024-05-09T12:42:00.344Z,22.57
2024-05-09T12:44:30.970Z,22.62
2024-05-09T12:47:02.038Z,22.67
2024-05-09T12:49:30.262Z,22.52
2024-05-09T12:52:01.467Z,22.58
2024-05-09T12:54:29.536Z,22.69
2024-05-09T12:57:00.744Z,22.74
2024-05-09T12:59:31.434Z,22.71
2024-05-09T13:02:02.647Z,22.75
2024-05-09T13:04:30.981Z,22.78
2024-05-09T13:07:07.735Z,22.85
2024-05-09T13:09:36.025Z,22.97
2024-05-09T13:12:07.382Z,22.99
2024-05-09T13:14:38.403Z,23.00
2024-05-09T13:17:09.527Z,22.99
2024-05-09T13:19:37.566Z,22.99
2024-05-09T13:22:08.854Z,22.93
2024-05-09T13:24:36.982Z,22.89
2024-05-09T13:27:08.287Z,22.83
2024-05-09T13:29:41.099Z,22.81
2024-05-09T13:32:13.787Z,22.78
2024-05-09T13:34:41.931Z,22.75
2024-05-09T13:37:13.228Z,22.67
2024-05-09T13:39:41.348Z,22.66
2024-05-09T13:42:12.570Z,22.66
2024-05-09T13:44:43.189Z,22.65
2024-05-09T13:47:14.974Z,22.64
2024-05-09T13:49:43.061Z,22.59
2024-05-09T13:52:14.247Z,22.52
2024-05-09T13:54:42.395Z,22.50
2024-05-09T13:57:13.596Z,22.50
2024-05-09T13:59:44.264Z,22.48
2024-05-09T14:02:15.482Z,22.48
2024-05-09T14:04:43.764Z,22.47
2024-05-09T14:07:15.092Z,22.47
2024-05-09T14:09:43.120Z,22.45
2024-05-09T14:12:14.212Z,22.45
2024-05-09T14:14:44.910Z,22.44
2024-05-09T14:17:16.001Z,22.41
2024-05-09T14:19:44.151Z,22.42
2024-05-09T14:22:15.288Z,22.39
2024-05-09T14:24:43.412Z,22.42
2024-05-09T14:27:14.513Z,22.42
2024-05-09T14:29:45.192Z,22.45
2024-05-09T14:32:16.195Z,22.45
2024-05-09T14:34:44.312Z,22.46
2024-05-09T14:37:15.612Z,22.42
2024-05-09T14:39:43.602Z,22.39
2024-05-09T14:42:15.407Z,22.38
2024-05-09T14:44:46.054Z,22.32
2024-05-09T14:47:17.377Z,22.24
2024-05-09T14:49:45.558Z,22.21
2024-05-09T14:52:16.823Z,22.17
2024-05-09T14:54:45.045Z,22.10
2024-05-09T14:57:16.630Z,22.08
2024-05-09T14:59:47.274Z,22.02
2024-05-09T15:02:19.610Z,22.00
2024-05-09T15:04:47.944Z,21.98
2024-05-09T15:07:19.296Z,21.98
2024-05-09T15:09:47.467Z,21.92
2024-05-09T15:12:18.478Z,21.90
2024-05-09T15:14:49.072Z,21.87
2024-05-09T15:17:20.146Z,21.84
2024-05-09T15:19:48.410Z,21.84
2024-05-09T15:22:19.814Z,21.81
2024-05-09T15:24:48.609Z,21.77
2024-05-09T15:27:20.938Z,21.75
2024-05-09T15:29:51.631Z,21.72
2024-05-09T15:32:24.647Z,21.69
2024-05-09T15:34:52.801Z,21.65
2024-05-09T15:37:24.028Z,21.62
2024-05-09T15:39:52.326Z,21.58
2024-05-09T15:42:24.405Z,21.56
2024-05-09T15:44:55.031Z,21.52
2024-05-09T15:47:27.884Z,21.47
2024-05-09T15:49:55.982Z,21.41
2024-05-09T15:52:27.118Z,21.39
2024-05-09T15:54:55.049Z,21.37
2024-05-09T15:57:26.328Z,21.35
2024-05-09T15:59:57.217Z,21.34
2024-05-09T16:02:28.515Z,21.30
2024-05-09T16:04:56.698Z,21.25
2024-05-09T16:07:27.857Z,21.21
2024-05-09T16:09:55.928Z,21.18
2024-05-09T16:12:26.958Z,21.11
2024-05-09T16:14:57.610Z,21.06
2024-05-09T16:17:28.779Z,21.04
2024-05-09T16:19:56.821Z,21.00
2024-05-09T16:22:28.014Z,20.95
2024-05-09T16:24:56.251Z,20.92
2024-05-09T16:27:27.371Z,20.92
2024-05-09T16:30:04.106Z,20.86
2024-05-09T16:32:40.917Z,20.86
2024-05-09T16:35:08.964Z,20.84
2024-05-09T16:37:40.085Z,20.81
2024-05-09T16:40:21.404Z,20.80
2024-05-09T16:42:56.971Z,20.77
2024-05-09T16:45:27.675Z,20.75
2024-05-09T16:47:59.028Z,20.72
2024-05-09T16:50:32.393Z,20.68
2024-05-09T16:53:06.199Z,20.62
2024-05-09T16:55:35.225Z,20.59
2024-05-09T16:58:06.747Z,20.56
2024-05-09T17:00:42.109Z,20.49
2024-05-09T17:03:16.640Z,20.44
2024-05-09T17:05:47.140Z,20.41
2024-05-09T17:08:19.999Z,20.36
2024-05-09T17:10:49.354Z,20.31
2024-05-09T17:13:21.386Z,20.28
2024-05-09T17:15:54.846Z,20.27
2024-05-09T17:18:23.460Z,20.20
2024-05-09T17:20:54.697Z,20.16
2024-05-09T17:23:23.217Z,20.15
2024-05-09T17:25:53.763Z,20.13
2024-05-09T17:28:22.366Z,20.08
2024-05-09T17:30:55.738Z,20.06
2024-05-09T17:33:24.531Z,20.04
2024-05-09T17:36:01.068Z,20.00
2024-05-09T17:38:29.513Z,19.99
2024-05-09T17:41:00.395Z,19.98
2024-05-09T17:43:29.196Z,19.98
2024-05-09T17:46:02.633Z,19.97
2024-05-09T17:48:31.358Z,19.95
2024-05-09T17:51:02.099Z,19.91
2024-05-09T17:53:30.507Z,19.92
2024-05-09T17:56:01.602Z,19.92
2024-05-09T17:58:30.320Z,19.89
2024-05-09T18:01:05.655Z,19.85
2024-05-09T18:03:34.459Z,19.80
2024-05-09T18:06:05.484Z,19.78
2024-05-09T18:08:34.102Z,19.74
2024-05-09T18:11:04.693Z,19.70
2024-05-09T18:13:33.243Z,19.68
2024-05-09T18:16:06.639Z,19.61
2024-05-09T18:18:35.458Z,19.58
2024-05-09T18:21:06.786Z,19.55
2024-05-09T18:23:35.280Z,19.49
2024-05-09T18:26:06.033Z,19.46
2024-05-09T18:28:34.658Z,19.41
2024-05-09T18:31:08.027Z,19.39
2024-05-09T18:33:36.685Z,19.34
2024-05-09T18:36:07.526Z,19.29
2024-05-09T18:38:35.943Z,19.26
2024-05-09T18:41:06.955Z,19.21
2024-05-09T18:43:42.179Z,19.15
2024-05-09T18:46:18.632Z,19.12
2024-05-09T18:48:47.217Z,19.04
2024-05-09T18:51:17.928Z,19.01
2024-05-09T18:53:46.445Z,18.94
2024-05-09T18:56:17.220Z,18.89
2024-05-09T18:58:46.916Z,18.83
2024-05-09T19:01:20.303Z,18.80
2024-05-09T19:03:49.179Z,18.73
2024-05-09T19:06:24.476Z,18.68
2024-05-09T19:08:53.310Z,18.59
2024-05-09T19:11:23.968Z,18.50
2024-05-09T19:13:52.516Z,18.45
2024-05-09T19:16:25.948Z,18.38
2024-05-09T19:18:55.883Z,18.31
2024-05-09T19:21:28.268Z,18.21
2024-05-09T19:23:57.622Z,18.18
2024-05-09T19:26:28.314Z,18.13
2024-05-09T19:28:56.811Z,18.07
2024-05-09T19:31:35.040Z,18.02
2024-05-09T19:34:05.281Z,17.96
2024-05-09T19:36:37.115Z,17.93
2024-05-09T19:39:05.760Z,17.88
2024-05-09T19:41:36.322Z,17.84
2024-05-09T19:44:04.967Z,17.79
2024-05-09T19:46:39.996Z,17.77
2024-05-09T19:49:08.664Z,17.73
2024-05-09T19:51:39.438Z,17.67
2024-05-09T19:54:07.975Z,17.63
2024-05-09T19:56:44.575Z,17.59
2024-05-09T19:59:13.074Z,17.55
2024-05-09T20:01:46.474Z,17.52
2024-05-09T20:04:15.210Z,17.47
2024-05-09T20:06:48.054Z,17.45
2024-05-09T20:09:16.702Z,17.41
2024-05-09T20:11:47.301Z,17.38
2024-05-09T20:14:17.473Z,17.33
2024-05-09T20:16:50.646Z,17.28
2024-05-09T20:19:19.301Z,17.25
2024-05-09T20:21:50.069Z,17.21
2024-05-09T20:24:18.560Z,17.16
2024-05-09T20:26:50.550Z,17.11
2024-05-09T20:29:19.039Z,17.08
2024-05-09T20:31:52.402Z,17.04
2024-05-09T20:34:21.058Z,16.98
2024-05-09T20:36:51.814Z,16.92
2024-05-09T20:39:24.641Z,16.90
2024-05-09T20:41:55.733Z,16.84
2024-05-09T20:44:24.232Z,16.79
2024-05-09T20:46:57.482Z,16.75
2024-05-09T20:49:26.112Z,16.69
2024-05-09T20:51:57.882Z,16.65
2024-05-09T20:54:26.371Z,16.62
2024-05-09T20:56:57.061Z,16.58
2024-05-09T20:59:25.548Z,16.52
2024-05-09T21:01:58.872Z,16.49
2024-05-09T21:04:30.374Z,16.45
2024-05-09T21:07:01.120Z,16.41
2024-05-09T21:09:29.732Z,16.37
2024-05-09T21:12:00.429Z,16.34
2024-05-09T21:14:28.942Z,16.31
2024-05-09T21:17:02.201Z,16.26
2024-05-09T21:19:30.753Z,16.22
2024-05-09T21:22:01.435Z,16.17
2024-05-09T21:24:29.917Z,16.14
2024-05-09T21:27:00.463Z,16.10
2024-05-09T21:29:28.971Z,16.04
2024-05-09T21:32:02.235Z,15.99
2024-05-09T21:34:30.648Z,15.95
2024-05-09T21:37:01.527Z,15.92
2024-05-09T21:39:30.308Z,15.89
2024-05-09T21:42:02.778Z,15.83
2024-05-09T21:44:31.280Z,15.78
2024-05-09T21:47:04.605Z,15.74
2024-05-09T21:49:33.224Z,15.70
2024-05-09T21:52:04.151Z,15.63
2024-05-09T21:54:32.672Z,15.61
2024-05-09T21:57:03.857Z,15.54
2024-05-09T21:59:32.323Z,15.50
2024-05-09T22:02:06.052Z,15.47
2024-05-09T22:04:34.740Z,15.40
2024-05-09T22:07:06.581Z,15.36
2024-05-09T22:09:35.238Z,15.28
2024-05-09T22:12:05.989Z,15.24
2024-05-09T22:14:34.537Z,15.17
2024-05-09T22:17:07.878Z,15.13
2024-05-09T22:19:36.505Z,15.07
2024-05-09T22:22:07.459Z,15.04
2024-05-09T22:24:36.094Z,14.97
2024-05-09T22:27:07.022Z,14.95
2024-05-09T22:29:35.430Z,14.90
2024-05-09T22:32:09.220Z,14.86
2024-05-09T22:34:37.788Z,14.83
2024-05-09T22:37:08.709Z,14.82
2024-05-09T22:39:37.243Z,14.79
2024-05-09T22:42:08.033Z,14.75
2024-05-09T22:44:36.494Z,14.76
2024-05-09T22:47:10.047Z,14.71
2024-05-09T22:49:38.574Z,14.67
2024-05-09T22:52:09.359Z,14.65
2024-05-09T22:54:37.964Z,14.66
2024-05-09T22:57:08.560Z,14.65
2024-05-09T22:59:37.195Z,14.62
2024-05-09T23:02:10.568Z,14.62
2024-05-09T23:04:39.358Z,14.61
2024-05-09T23:07:10.108Z,14.62
2024-05-09T23:09:38.517Z,14.59
2024-05-09T23:12:09.493Z,14.59
2024-05-09T23:14:37.996Z,14.59
2024-05-09T23:17:11.323Z,14.55
2024-05-09T23:19:39.851Z,14.55
2024-05-09T23:22:10.568Z,14.53
2024-05-09T23:24:39.030Z,14.52
2024-05-09T23:27:09.782Z,14.54
2024-05-09T23:29:38.343Z,14.52
2024-05-09T23:32:12.223Z,14.53
2024-05-09T23:34:40.763Z,14.52
2024-05-09T23:37:12.055Z,14.50
2024-05-09T23:39:40.602Z,14.50
2024-05-09T23:42:11.200Z,14.50
2024-05-09T23:44:39.769Z,14.51
2024-05-09T23:47:13.096Z,14.51
2024-05-09T23:49:41.779Z,14.53
2024-05-09T23:52:12.460Z,14.52
2024-05-09T23:54:42.236Z,14.51
2024-05-09T23:57:12.977Z,14.51
2024-05-09T23:59:41.897Z,14.53
